Terminal Aerodrome Forecast
Issued by NWS Pueblo, CO

Home | Current Version | Previous Version | Text Only | Print | Product List | Glossary On
Versions: 1 2 3 4 5 6 7 8 9 10 11 12 13 14 15 16
000
FTUS45 KPUB 240520
TAFALS
TAF
KALS 240520Z 2406/2506 VRB06KT P6SM VCSH SCT070 SCT100
     FM241200 34008KT P6SM VCSH BKN050
     FM241900 30015KT P6SM -TSRA BKN040CB
     FM250100 08008KT P6SM SCT050 BKN080=

USA.gov is the U.S. government's official web portal to all federal, state and local government web resources and services.